Time;durP1;ratioP1;P1;durP2;ratioP2;P2;SDS_P1;SDS_P2;PMS_P1;PMS_P2;Temp;Humidity;BMP_temperature;BMP_pressure;BME280_temperature;BME280_humidity;BME280_pressure;Samples;Min_cycle;Max_cycle;Signal;HPM_P1;HPM_P2
2022/07/12 00:00:37;;;;;;;;;;;;;;;21.13;100.00;98493.03;5126044;28;19928;-60
2022/07/12 00:03:03;;;;;;;;;;;;;;;21.14;100.00;98491.88;5125977;28;19959;-59
2022/07/12 00:05:29;;;;;;;;;;;;;;;21.13;100.00;98484.88;5122809;28;19924;-59
2022/07/12 00:07:56;;;;;;;;;;;;;;;21.16;100.00;98492.38;5122238;28;20128;-59
2022/07/12 00:10:24;;;;;;;;;;;;;;;21.16;100.00;98486.16;5124610;28;19924;-59
2022/07/12 00:12:50;;;;;;;;;;;;;;;21.18;100.00;98495.56;5134937;27;19951;-60
2022/07/12 00:15:16;;;;;;;;;;;;;;;21.12;100.00;98488.69;5124307;28;19967;-60
2022/07/12 00:17:43;;;;;;;;;;;;;;;21.13;100.00;98494.94;5122337;28;19935;-60
2022/07/12 00:20:10;;;;;;;;;;;;;;;21.15;100.00;98488.06;5122283;28;19955;-61
2022/07/12 00:22:36;;;;;;;;;;;;;;;21.17;100.00;98487.75;5125680;28;19992;-61
2022/07/12 00:25:02;;;;;;;;;;;;;;;21.14;100.00;98488.34;5125412;28;20349;-60
2022/07/12 00:27:30;;;;;;;;;;;;;;;21.14;100.00;98477.50;5122520;28;19955;-59
2022/07/12 00:29:56;;;;;;;;;;;;;;;21.15;100.00;98490.78;5121881;28;19935;-60
2022/07/12 00:32:23;;;;;;;;;;;;;;;21.13;100.00;98481.34;5123948;28;19984;-60
2022/07/12 00:34:49;;;;;;;;;;;;;;;21.13;100.00;98493.03;5125061;28;19939;-60
2022/07/12 00:37:15;;;;;;;;;;;;;;;21.11;100.00;98494.44;5123960;28;19991;-59
2022/07/12 00:39:42;;;;;;;;;;;;;;;21.12;100.00;98488.69;5121537;28;19935;-59
2022/07/12 00:42:08;;;;;;;;;;;;;;;21.11;100.00;98495.22;5130550;27;19958;-59
2022/07/12 00:44:36;;;;;;;;;;;;;;;21.15;100.00;98498.91;5124915;28;19962;-60
2022/07/12 00:47:03;;;;;;;;;;;;;;;21.10;100.00;98490.94;5124988;28;19935;-60
2022/07/12 00:49:30;;;;;;;;;;;;;;;21.06;100.00;98486.41;5121628;28;19967;-60
2022/07/12 00:51:57;;;;;;;;;;;;;;;21.08;100.00;98481.44;5121326;28;19928;-59
2022/07/12 00:54:23;;;;;;;;;;;;;;;20.98;100.00;98485.28;5123736;28;19989;-59
2022/07/12 00:56:50;;;;;;;;;;;;;;;21.04;100.00;98483.22;5124792;28;19935;-59
2022/07/12 00:59:16;;;;;;;;;;;;;;;21.02;100.00;98480.81;5123618;28;19924;-60
2022/07/12 01:01:44;;;;;;;;;;;;;;;21.00;100.00;98483.06;5121387;28;19927;-60
2022/07/12 01:04:10;;;;;;;;;;;;;;;20.98;100.00;98477.16;5121504;28;19928;-60
2022/07/12 01:06:37;;;;;;;;;;;;;;;20.91;100.00;98483.03;5124707;28;19923;-60
2022/07/12 01:09:03;;;;;;;;;;;;;;;20.87;100.00;98484.78;5124575;28;19935;-60
2022/07/12 01:11:30;;;;;;;;;;;;;;;20.84;100.00;98488.13;5103414;28;19924;-61
2022/07/12 01:13:58;;;;;;;;;;;;;;;20.86;100.00;98483.16;5111665;28;20221;-60
2022/07/12 01:16:25;;;;;;;;;;;;;;;20.86;100.00;98490.50;5123331;28;19924;-59
2022/07/12 01:18:53;;;;;;;;;;;;;;;20.89;100.00;98495.31;5124349;28;19927;-61
2022/07/12 01:21:22;;;;;;;;;;;;;;;20.90;100.00;98491.47;5122731;28;19970;-60
2022/07/12 01:23:51;;;;;;;;;;;;;;;20.91;100.00;98490.38;5120788;28;19955;-61
2022/07/12 01:26:17;;;;;;;;;;;;;;;20.91;100.00;98495.81;5104106;28;19928;-59
2022/07/12 01:28:44;;;;;;;;;;;;;;;20.89;100.00;98482.53;5124183;28;19924;-60
2022/07/12 01:31:10;;;;;;;;;;;;;;;20.93;100.00;98482.72;5123608;28;19919;-59
2022/07/12 01:33:37;;;;;;;;;;;;;;;20.87;100.00;98482.06;5120626;28;20323;-60
2022/07/12 01:36:03;;;;;;;;;;;;;;;20.88;100.00;98475.53;5120641;28;19939;-59
2022/07/12 01:38:30;;;;;;;;;;;;;;;20.88;100.00;98489.09;5123492;28;19930;-59
2022/07/12 01:40:57;;;;;;;;;;;;;;;20.89;100.00;98482.53;5123806;28;19944;-59
2022/07/12 01:43:24;;;;;;;;;;;;;;;20.88;100.00;98486.38;5130570;27;19946;-60
2022/07/12 01:45:50;;;;;;;;;;;;;;;20.89;100.00;98492.59;5120154;28;20401;-60
2022/07/12 01:48:16;;;;;;;;;;;;;;;20.89;100.00;98484.44;5121529;28;19956;-59
2022/07/12 01:50:43;;;;;;;;;;;;;;;20.91;100.00;98477.59;5123733;28;19951;-60
2022/07/12 01:53:11;;;;;;;;;;;;;;;20.87;100.00;98483.97;5123465;28;20006;-59
2022/07/12 01:55:37;;;;;;;;;;;;;;;20.87;100.00;98481.25;5120326;28;19950;-59
2022/07/12 01:58:05;;;;;;;;;;;;;;;20.82;100.00;98481.41;5120384;28;19928;-59
2022/07/12 02:00:32;;;;;;;;;;;;;;;20.66;100.00;98472.09;5123520;28;19924;-60
2022/07/12 02:02:58;;;;;;;;;;;;;;;20.77;100.00;98478.81;5123491;28;19935;-59
2022/07/12 02:05:25;;;;;;;;;;;;;;;20.74;100.00;98480.25;5121028;28;19977;-59
2022/07/12 02:07:51;;;;;;;;;;;;;;;20.73;100.00;98473.25;5119900;28;19955;-60
2022/07/12 02:10:18;;;;;;;;;;;;;;;20.79;100.00;98472.00;5121598;28;19920;-59
2022/07/12 02:12:44;;;;;;;;;;;;;;;20.81;100.00;98479.81;5118371;28;19924;-60
2022/07/12 02:15:12;;;;;;;;;;;;;;;20.80;100.00;98472.78;5119749;28;19928;-59
2022/07/12 02:17:38;;;;;;;;;;;;;;;20.62;100.00;98477.34;5119557;28;19950;-60
2022/07/12 02:20:06;;;;;;;;;;;;;;;20.74;100.00;98474.84;5119688;28;20628;-59
2022/07/12 02:22:33;;;;;;;;;;;;;;;20.68;100.00;98472.56;5123263;28;19923;-60
2022/07/12 02:24:59;;;;;;;;;;;;;;;20.72;100.00;98478.97;5123244;28;19968;-60
2022/07/12 02:27:26;;;;;;;;;;;;;;;20.75;100.00;98479.16;5120873;28;19951;-59
2022/07/12 02:29:53;;;;;;;;;;;;;;;20.64;100.00;98485.19;5119645;28;19987;-59
2022/07/12 02:32:20;;;;;;;;;;;;;;;20.63;100.00;98475.44;5121370;28;19920;-60
2022/07/12 02:34:47;;;;;;;;;;;;;;;20.66;100.00;98483.75;5123172;28;19951;-60
2022/07/12 02:37:14;;;;;;;;;;;;;;;20.72;100.00;98476.28;5121987;28;19945;-60
2022/07/12 02:39:40;;;;;;;;;;;;;;;20.65;100.00;98478.63;5119548;28;19926;-59
2022/07/12 02:42:07;;;;;;;;;;;;;;;20.69;100.00;98477.72;5128161;27;19924;-60
2022/07/12 02:44:33;;;;;;;;;;;;;;;20.74;100.00;98479.47;5110796;28;19955;-59
2022/07/12 02:47:00;;;;;;;;;;;;;;;20.74;100.00;98485.69;5110652;28;19924;-59
2022/07/12 02:49:27;;;;;;;;;;;;;;;20.73;100.00;98480.59;5110700;28;19924;-59
2022/07/12 02:51:54;;;;;;;;;;;;;;;20.72;100.00;98482.50;5110643;28;20380;-61
2022/07/12 02:54:20;;;;;;;;;;;;;;;20.70;100.00;98483.94;5110580;28;19963;-59
2022/07/12 02:56:46;;;;;;;;;;;;;;;20.69;100.00;98479.63;5110388;28;19959;-59
2022/07/12 02:59:13;;;;;;;;;;;;;;;20.68;100.00;98483.44;5110539;28;19928;-60
2022/07/12 03:01:39;;;;;;;;;;;;;;;20.71;100.00;98488.22;5110454;28;20377;-60
2022/07/12 03:04:06;;;;;;;;;;;;;;;20.74;100.00;98484.88;5110465;28;19924;-59
2022/07/12 03:06:33;;;;;;;;;;;;;;;20.72;100.00;98487.13;5110440;28;19947;-60
2022/07/12 03:09:00;;;;;;;;;;;;;;;20.69;100.00;98480.41;5110314;28;19935;-59
2022/07/12 03:11:26;;;;;;;;;;;;;;;20.69;100.00;98485.03;5110593;28;19931;-60
2022/07/12 03:13:52;;;;;;;;;;;;;;;20.69;100.00;98476.91;5110477;28;20455;-60
2022/07/12 03:16:19;;;;;;;;;;;;;;;20.68;100.00;98486.16;5120208;28;19963;-59
2022/07/12 03:18:45;;;;;;;;;;;;;;;20.68;100.00;98486.94;5122382;28;19945;-60
2022/07/12 03:21:12;;;;;;;;;;;;;;;20.68;100.00;98491.56;5121620;28;19919;-59
2022/07/12 03:23:40;;;;;;;;;;;;;;;20.65;100.00;98481.34;5118713;28;20143;-60
2022/07/12 03:26:07;;;;;;;;;;;;;;;20.60;100.00;98493.16;5118577;28;19924;-60
2022/07/12 03:28:33;;;;;;;;;;;;;;;20.61;100.00;98500.16;5117821;28;19924;-60
2022/07/12 03:31:01;;;;;;;;;;;;;;;20.61;100.00;98494.75;5118647;28;19923;-60
2022/07/12 03:33:27;;;;;;;;;;;;;;;20.59;100.00;98507.03;5121373;28;19955;-60
2022/07/12 03:35:53;;;;;;;;;;;;;;;20.60;100.00;98508.63;5121972;28;19931;-60
2022/07/12 03:38:20;;;;;;;;;;;;;;;20.62;100.00;98503.69;5120254;28;19935;-61
2022/07/12 03:40:48;;;;;;;;;;;;;;;20.62;100.00;98517.25;5118335;28;19931;-60
2022/07/12 03:43:14;;;;;;;;;;;;;;;20.62;100.00;98503.69;5131374;28;19924;-59
2022/07/12 03:45:42;;;;;;;;;;;;;;;20.53;100.00;98505.56;5118418;28;19988;-60
2022/07/12 03:48:09;;;;;;;;;;;;;;;20.62;100.00;98514.53;5118611;28;19955;-60
2022/07/12 03:50:35;;;;;;;;;;;;;;;20.59;100.00;98521.41;5121879;28;20017;-60
2022/07/12 03:53:02;;;;;;;;;;;;;;;20.59;100.00;98515.16;5121896;28;19939;-59
2022/07/12 03:55:28;;;;;;;;;;;;;;;20.59;100.00;98518.69;5118951;28;20387;-60
2022/07/12 03:57:56;;;;;;;;;;;;;;;20.60;100.00;98522.22;5118334;28;19963;-59
2022/07/12 04:00:22;;;;;;;;;;;;;;;20.59;100.00;98517.88;5120336;28;19924;-60
2022/07/12 04:02:49;;;;;;;;;;;;;;;20.53;100.00;98519.13;5121822;28;19951;-60
2022/07/12 04:05:15;;;;;;;;;;;;;;;20.57;100.00;98517.41;5120494;28;20514;-60
2022/07/12 04:07:42;;;;;;;;;;;;;;;20.54;100.00;98516.13;5118040;28;20010;-63
2022/07/12 04:10:09;;;;;;;;;;;;;;;20.54;100.00;98512.59;5118270;28;19924;-60
2022/07/12 04:12:36;;;;;;;;;;;;;;;20.52;100.00;98514.84;5117711;28;19924;-59
2022/07/12 04:15:03;;;;;;;;;;;;;;;20.58;100.00;98521.72;5117392;28;19920;-60
2022/07/12 04:17:30;;;;;;;;;;;;;;;20.54;100.00;98516.13;5118771;28;19954;-59
2022/07/12 04:19:56;;;;;;;;;;;;;;;20.53;100.00;98524.56;5118310;28;19931;-59
2022/07/12 04:22:22;;;;;;;;;;;;;;;20.51;100.00;98526.81;5120239;28;20500;-59
2022/07/12 04:24:49;;;;;;;;;;;;;;;20.52;100.00;98528.41;5121682;28;19923;-59
2022/07/12 04:27:15;;;;;;;;;;;;;;;20.45;100.00;98526.94;5120476;28;19920;-60
2022/07/12 04:29:42;;;;;;;;;;;;;;;20.49;100.00;98524.38;5118178;28;20379;-60
2022/07/12 04:32:09;;;;;;;;;;;;;;;20.47;100.00;98529.34;5117830;28;19955;-60
2022/07/12 04:34:36;;;;;;;;;;;;;;;20.49;100.00;98529.03;5121565;28;19924;-59
2022/07/12 04:37:02;;;;;;;;;;;;;;;20.35;100.00;98527.22;5121395;28;19924;-59
2022/07/12 04:39:29;;;;;;;;;;;;;;;20.27;100.00;98527.94;5120001;28;19928;-59
2022/07/12 04:41:55;;;;;;;;;;;;;;;20.00;100.00;98532.69;5127206;27;20506;-60
2022/07/12 04:44:21;;;;;;;;;;;;;;;19.59;100.00;98530.94;5126690;27;19991;-60
2022/07/12 04:46:47;;;;;;;;;;;;;;;19.81;100.00;98522.03;5124909;28;19923;-59
2022/07/12 04:49:15;;;;;;;;;;;;;;;19.82;100.00;98532.59;5124074;28;19930;-59
2022/07/12 04:51:42;;;;;;;;;;;;;;;19.94;100.00;98529.31;5121493;28;19988;-59
2022/07/12 04:54:08;;;;;;;;;;;;;;;19.88;100.00;98535.97;5121317;28;19920;-60
2022/07/12 04:56:34;;;;;;;;;;;;;;;19.78;100.00;98536.19;5124972;28;19970;-59
2022/07/12 04:59:01;;;;;;;;;;;;;;;19.93;100.00;98541.25;5124607;28;20524;-60
2022/07/12 05:01:27;;;;;;;;;;;;;;;19.69;100.00;98540.75;5121968;28;19954;-60
2022/07/12 05:03:54;;;;;;;;;;;;;;;19.88;100.00;98544.09;5120928;28;19924;-59
2022/07/12 05:06:22;;;;;;;;;;;;;;;19.74;100.00;98549.59;5122527;28;19938;-59
2022/07/12 05:08:48;;;;;;;;;;;;;;;19.54;100.00;98546.53;5124489;28;19924;-60
2022/07/12 05:11:15;;;;;;;;;;;;;;;19.64;100.00;98549.81;5123528;28;19955;-58
2022/07/12 05:13:41;;;;;;;;;;;;;;;19.62;100.00;98552.00;5112527;28;19946;-60
2022/07/12 05:16:08;;;;;;;;;;;;;;;19.75;100.00;98556.59;5120876;28;19955;-59
2022/07/12 05:18:35;;;;;;;;;;;;;;;19.83;100.00;98557.78;5120669;28;19924;-59
2022/07/12 05:21:02;;;;;;;;;;;;;;;19.62;100.00;98562.06;5120708;28;20641;-59
2022/07/12 05:23:29;;;;;;;;;;;;;;;19.40;100.00;98565.53;5123515;28;19976;-59
2022/07/12 05:25:56;;;;;;;;;;;;;;;19.26;100.00;98568.22;5124118;28;19928;-60
2022/07/12 05:28:22;;;;;;;;;;;;;;;19.46;100.00;98558.09;5122216;28;19927;-61
2022/07/12 05:30:48;;;;;;;;;;;;;;;19.69;100.00;98567.84;5120769;28;19927;-60
2022/07/12 05:33:15;;;;;;;;;;;;;;;19.13;100.00;98560.09;5121567;28;19984;-60
2022/07/12 05:35:41;;;;;;;;;;;;;;;18.48;100.00;98565.69;5124025;28;19927;-59
2022/07/12 05:38:07;;;;;;;;;;;;;;;18.92;100.00;98564.34;5123928;28;20573;-60
2022/07/12 05:40:35;;;;;;;;;;;;;;;19.44;100.00;98566.50;5111952;28;19931;-59
2022/07/12 05:43:02;;;;;;;;;;;;;;;19.88;100.00;98571.22;5111745;28;19963;-60
2022/07/12 05:45:28;;;;;;;;;;;;;;;20.25;100.00;98559.97;5120312;28;19928;-60
2022/07/12 05:47:54;;;;;;;;;;;;;;;20.33;100.00;98572.03;5120144;28;19931;-61
2022/07/12 05:50:21;;;;;;;;;;;;;;;20.56;100.00;98565.44;5121395;28;19963;-60
2022/07/12 05:55:31;;;;;;;;;;;;;;;20.85;100.00;98573.91;5120445;28;20017;-60
2022/07/12 05:57:58;;;;;;;;;;;;;;;20.81;100.00;98572.09;5120023;28;19924;-60
2022/07/12 06:00:25;;;;;;;;;;;;;;;21.09;100.00;98570.81;5122433;28;19928;-60
2022/07/12 06:02:51;;;;;;;;;;;;;;;21.30;100.00;98574.53;5123467;28;19924;-60
2022/07/12 06:05:18;;;;;;;;;;;;;;;21.36;100.00;98578.69;5122020;28;19924;-59
2022/07/12 06:07:44;;;;;;;;;;;;;;;21.43;100.00;98584.47;5119502;28;19935;-60
2022/07/12 06:10:10;;;;;;;;;;;;;;;21.41;100.00;98581.28;5120065;28;19925;-59
2022/07/12 06:12:37;;;;;;;;;;;;;;;21.62;100.00;98586.09;5119265;28;19925;-60
2022/07/12 06:15:06;;;;;;;;;;;;;;;21.76;100.00;98581.28;5119294;28;19920;-60
2022/07/12 06:17:33;;;;;;;;;;;;;;;21.84;100.00;98581.31;5120199;28;19977;-60
2022/07/12 06:19:59;;;;;;;;;;;;;;;22.05;100.00;98576.84;5119660;28;19991;-59
2022/07/12 06:22:26;;;;;;;;;;;;;;;22.24;99.23;98581.16;5122327;28;20000;-60
2022/07/12 06:24:52;;;;;;;;;;;;;;;22.27;98.65;98584.03;5123224;28;19984;-60
2022/07/12 06:27:18;;;;;;;;;;;;;;;22.25;98.69;98583.53;5121644;28;19962;-60
2022/07/12 06:29:47;;;;;;;;;;;;;;;22.39;98.20;98583.38;5119667;28;19924;-60
2022/07/12 06:32:15;;;;;;;;;;;;;;;22.56;96.43;98584.09;5120224;28;19948;-60
2022/07/12 06:34:41;;;;;;;;;;;;;;;22.60;96.00;98595.97;5122864;28;19969;-59
2022/07/12 06:37:08;;;;;;;;;;;;;;;22.60;96.11;98587.00;5122922;28;19999;-60
2022/07/12 06:39:35;;;;;;;;;;;;;;;22.71;97.04;98588.28;5110903;28;19924;-60
2022/07/12 06:42:03;;;;;;;;;;;;;;;22.75;95.79;98586.47;5110883;28;19956;-59
2022/07/12 06:44:29;;;;;;;;;;;;;;;23.01;94.71;98578.22;5113688;28;19935;-60
2022/07/12 06:46:56;;;;;;;;;;;;;;;23.20;93.85;98585.97;5122532;28;19963;-60
2022/07/12 06:49:23;;;;;;;;;;;;;;;23.16;93.03;98579.56;5120602;28;20375;-59
2022/07/12 06:51:50;;;;;;;;;;;;;;;23.10;92.82;98576.25;5118919;28;19931;-60
2022/07/12 06:54:16;;;;;;;;;;;;;;;23.30;91.93;98580.97;5120157;28;19924;-59
2022/07/12 06:56:42;;;;;;;;;;;;;;;23.18;89.20;98578.13;5122635;28;19923;-61
2022/07/12 06:59:10;;;;;;;;;;;;;;;23.30;91.68;98571.97;5122401;28;19923;-59
2022/07/12 07:01:37;;;;;;;;;;;;;;;23.22;91.58;98579.06;5118792;28;19952;-60
2022/07/12 07:04:03;;;;;;;;;;;;;;;23.40;92.04;98586.03;5118874;28;19956;-60
2022/07/12 07:06:31;;;;;;;;;;;;;;;23.55;90.90;98576.50;5121544;28;19924;-60
2022/07/12 07:08:57;;;;;;;;;;;;;;;23.53;90.78;98582.28;5122037;28;19935;-60
2022/07/12 07:11:23;;;;;;;;;;;;;;;23.76;88.66;98584.69;5120106;28;19919;-59
2022/07/12 07:13:50;;;;;;;;;;;;;;;23.74;86.03;98587.72;5110163;28;19955;-60
2022/07/12 07:16:16;;;;;;;;;;;;;;;23.67;89.36;98581.22;5119830;28;19924;-59
2022/07/12 07:18:43;;;;;;;;;;;;;;;23.87;85.86;98581.22;5122185;28;19923;-59
2022/07/12 07:21:09;;;;;;;;;;;;;;;23.53;82.83;98595.91;5121959;28;19923;-59
2022/07/12 07:23:37;;;;;;;;;;;;;;;23.46;82.58;98590.16;5118789;28;19924;-59
2022/07/12 07:26:03;;;;;;;;;;;;;;;23.41;87.50;98590.38;5118433;28;19959;-60
2022/07/12 07:28:29;;;;;;;;;;;;;;;23.70;88.15;98586.00;5121381;28;19959;-60
2022/07/12 07:30:55;;;;;;;;;;;;;;;23.57;85.14;98593.31;5122025;28;20025;-60
2022/07/12 07:33:22;;;;;;;;;;;;;;;23.78;82.68;98596.84;5120286;28;19923;-60
2022/07/12 07:35:48;;;;;;;;;;;;;;;23.72;86.04;98591.94;5118362;28;19924;-60
2022/07/12 07:38:15;;;;;;;;;;;;;;;23.93;83.47;98598.19;5119405;28;19928;-60
2022/07/12 07:40:43;;;;;;;;;;;;;;;23.84;81.29;98594.72;5122069;28;20008;-59
2022/07/12 07:43:09;;;;;;;;;;;;;;;23.62;81.50;98593.91;5113132;28;19931;-61
2022/07/12 07:45:35;;;;;;;;;;;;;;;24.01;84.12;98608.25;5118397;28;20294;-60
2022/07/12 07:48:02;;;;;;;;;;;;;;;24.26;82.56;98601.78;5118287;28;20002;-59
2022/07/12 07:50:29;;;;;;;;;;;;;;;24.44;80.40;98599.69;5121069;28;19984;-60
2022/07/12 07:52:55;;;;;;;;;;;;;;;24.55;77.19;98585.25;5121409;28;19924;-60
2022/07/12 07:55:22;;;;;;;;;;;;;;;23.91;69.63;98595.78;5119626;28;19920;-60
2022/07/12 07:57:50;;;;;;;;;;;;;;;24.01;77.37;98600.06;5118026;28;20000;-60
2022/07/12 08:00:16;;;;;;;;;;;;;;;24.06;74.79;98592.47;5119154;28;19930;-60
2022/07/12 08:02:43;;;;;;;;;;;;;;;23.70;66.91;98588.75;5121661;28;19923;-59
2022/07/12 08:05:09;;;;;;;;;;;;;;;23.63;68.26;98581.88;5121524;28;19935;-60
2022/07/12 08:07:35;;;;;;;;;;;;;;;23.33;60.00;98593.94;5117686;28;19924;-59
2022/07/12 08:10:02;;;;;;;;;;;;;;;23.56;66.39;98595.25;5117810;28;19931;-60
2022/07/12 08:12:28;;;;;;;;;;;;;;;23.95;67.66;98593.22;5118003;28;19920;-59
2022/07/12 08:14:56;;;;;;;;;;;;;;;23.38;65.66;98588.28;5118318;28;19924;-59
2022/07/12 08:17:22;;;;;;;;;;;;;;;23.88;69.14;98587.47;5123445;28;19963;-60
2022/07/12 08:19:49;;;;;;;;;;;;;;;23.74;59.12;98578.78;5122116;28;19955;-60
2022/07/12 08:22:15;;;;;;;;;;;;;;;23.80;63.50;98591.84;5122886;28;20015;-59
2022/07/12 08:24:41;;;;;;;;;;;;;;;23.75;57.31;98591.25;5125451;28;19963;-60
2022/07/12 08:27:08;;;;;;;;;;;;;;;24.02;62.99;98596.16;5125129;28;20352;-60
2022/07/12 08:29:34;;;;;;;;;;;;;;;24.37;63.86;98588.50;5113367;28;19962;-61
2022/07/12 08:32:02;;;;;;;;;;;;;;;24.44;62.49;98597.75;5113273;28;19924;-60
2022/07/12 08:34:29;;;;;;;;;;;;;;;24.39;61.63;98599.88;5113381;28;20041;-60
2022/07/12 08:36:55;;;;;;;;;;;;;;;23.98;57.64;98595.25;5113281;28;19924;-61
2022/07/12 08:39:22;;;;;;;;;;;;;;;24.17;55.06;98599.13;5113197;28;19928;-59
2022/07/12 08:41:48;;;;;;;;;;;;;;;24.01;56.59;98600.06;5113012;28;19920;-60
2022/07/12 08:44:14;;;;;;;;;;;;;;;23.71;54.67;98598.50;5113991;28;19920;-60
2022/07/12 08:46:41;;;;;;;;;;;;;;;23.51;58.05;98600.09;5124961;28;19931;-60
2022/07/12 08:49:09;;;;;;;;;;;;;;;24.09;58.30;98605.44;5124956;28;19923;-60
2022/07/12 08:51:35;;;;;;;;;;;;;;;23.83;51.43;98595.88;5121452;28;19962;-60
2022/07/12 08:54:06;;;;;;;;;;;;;;;23.72;53.32;98600.91;5121404;28;19984;-60
2022/07/12 08:56:33;;;;;;;;;;;;;;;24.51;57.22;98592.50;5124597;28;19953;-60
2022/07/12 08:59:12;;;;;;;;;;;;;;;24.58;54.58;98586.50;5124666;28;19934;-60
2022/07/12 09:01:42;;;;;;;;;;;;;;;24.21;53.83;98595.72;5121148;28;19927;-60
2022/07/12 09:04:17;;;;;;;;;;;;;;;24.03;53.75;98586.88;5103076;28;19924;-63
2022/07/12 09:06:44;;;;;;;;;;;;;;;24.47;54.10;98602.53;5124513;28;19924;-60
2022/07/12 09:09:11;;;;;;;;;;;;;;;24.32;51.97;98594.97;5124262;28;19923;-60
2022/07/12 09:11:38;;;;;;;;;;;;;;;24.48;54.98;98595.91;5121050;28;19920;-60
2022/07/12 09:14:05;;;;;;;;;;;;;;;24.45;54.85;98598.56;5112536;28;20359;-61
2022/07/12 09:16:31;;;;;;;;;;;;;;;24.52;54.24;98601.50;5124063;28;19963;-60
2022/07/12 09:19:14;;;;;;;;;;;;;;;24.56;54.36;98592.31;5124392;28;20442;-59
2022/07/12 09:21:47;;;;;;;;;;;;;;;24.84;51.42;98588.97;5120890;28;19946;-60
2022/07/12 09:24:13;;;;;;;;;;;;;;;24.62;53.28;98585.50;5121357;28;19924;-60
2022/07/12 09:26:39;;;;;;;;;;;;;;;24.85;53.12;98591.34;5122820;28;19930;-60
2022/07/12 09:29:06;;;;;;;;;;;;;;;24.87;48.63;98580.09;5124194;28;20002;-60
2022/07/12 09:36:06;;;;;;;;;;;;;;;24.56;51.74;98589.59;5120840;27;19928;-60
2022/07/12 09:37:14;;;;;;;;;;;;;;;24.77;52.00;98594.16;5123296;28;19928;-60
2022/07/12 09:39:41;;;;;;;;;;;;;;;24.83;49.08;98587.38;5120655;28;20006;-60
2022/07/12 09:42:09;;;;;;;;;;;;;;;24.73;51.62;98589.38;5120139;28;19939;-60
2022/07/12 09:44:36;;;;;;;;;;;;;;;25.11;50.09;98591.84;5111997;28;19924;-60
2022/07/12 09:47:02;;;;;;;;;;;;;;;25.31;52.32;98587.41;5111683;28;19959;-59
2022/07/12 09:49:29;;;;;;;;;;;;;;;25.54;51.76;98583.06;5112051;28;19943;-60
2022/07/12 09:51:56;;;;;;;;;;;;;;;25.57;51.36;98587.03;5111749;28;19924;-62
2022/07/12 09:54:25;;;;;;;;;;;;;;;24.95;50.14;98590.13;5111608;28;19935;-59
2022/07/12 09:56:53;;;;;;;;;;;;;;;24.88;51.02;98589.91;5111625;28;19928;-61
2022/07/12 09:59:23;;;;;;;;;;;;;;;24.92;51.38;98590.78;5111705;28;20019;-61
2022/07/12 10:01:49;;;;;;;;;;;;;;;24.91;51.43;98589.22;5111471;28;19925;-60
2022/07/12 10:04:20;;;;;;;;;;;;;;;24.73;51.11;98600.31;5111615;28;19955;-60
2022/07/12 10:06:47;;;;;;;;;;;;;;;24.89;52.05;98600.47;5111561;28;19998;-60
2022/07/12 10:09:14;;;;;;;;;;;;;;;25.09;52.55;98593.34;5112056;28;19924;-60
2022/07/12 10:11:42;;;;;;;;;;;;;;;25.41;50.69;98595.13;5122439;28;19987;-60
2022/07/12 10:14:11;;;;;;;;;;;;;;;25.24;49.81;98600.84;5111367;28;19991;-60
2022/07/12 10:16:37;;;;;;;;;;;;;;;25.52;51.63;98592.75;5111263;28;19962;-60
2022/07/12 10:19:26;;;;;;;;;;;;;;;25.31;49.79;98589.34;5111242;28;19923;-59
2022/07/12 10:21:53;;;;;;;;;;;;;;;24.86;49.09;98594.91;5111320;28;19920;-60
2022/07/12 10:24:37;;;;;;;;;;;;;;;25.05;48.98;98585.00;5110921;28;19924;-61
2022/07/12 10:27:20;;;;;;;;;;;;;;;25.26;47.68;98582.16;5110929;28;19935;-61
2022/07/12 10:29:48;;;;;;;;;;;;;;;25.15;47.48;98572.81;5118835;28;19948;-59
2022/07/12 10:32:21;;;;;;;;;;;;;;;25.30;49.48;98574.88;5120122;28;19959;-59
2022/07/12 10:34:58;;;;;;;;;;;;;;;24.95;47.36;98568.25;5122786;28;19934;-60
2022/07/12 10:37:24;;;;;;;;;;;;;;;24.99;46.66;98567.25;5120226;28;19954;-60
2022/07/12 10:40:09;;;;;;;;;;;;;;;25.21;48.70;98571.47;5119185;28;19962;-60
2022/07/12 10:42:36;;;;;;;;;;;;;;;25.41;48.65;98578.72;5114309;28;19959;-59
2022/07/12 10:45:12;;;;;;;;;;;;;;;25.85;49.45;98567.94;5118141;28;19930;-60
2022/07/12 10:47:53;;;;;;;;;;;;;;;25.77;48.09;98572.44;5110725;28;19924;-60
2022/07/12 10:50:19;;;;;;;;;;;;;;;25.97;49.68;98576.91;5110639;28;19963;-60
2022/07/12 10:52:46;;;;;;;;;;;;;;;26.10;48.42;98563.97;5110446;28;19924;-59
2022/07/12 10:55:18;;;;;;;;;;;;;;;25.87;48.56;98577.41;5110418;28;19935;-60
2022/07/12 10:57:49;;;;;;;;;;;;;;;25.71;50.06;98571.88;5110630;28;19942;-59
2022/07/12 11:00:17;;;;;;;;;;;;;;;25.94;49.58;98577.59;5110534;28;19924;-60
2022/07/12 11:02:43;;;;;;;;;;;;;;;25.66;49.86;98574.84;5110468;28;19934;-59
2022/07/12 11:05:09;;;;;;;;;;;;;;;25.56;47.60;98578.03;5110553;28;19924;-61
2022/07/12 11:07:36;;;;;;;;;;;;;;;25.78;49.47;98574.81;5110356;28;19928;-61
2022/07/12 11:10:03;;;;;;;;;;;;;;;26.07;48.64;98567.41;5110516;28;19980;-60
2022/07/12 11:12:29;;;;;;;;;;;;;;;25.85;46.56;98560.53;5110473;28;19935;-60
2022/07/12 11:14:56;;;;;;;;;;;;;;;25.98;48.58;98569.50;5116938;28;19930;-61
2022/07/12 11:17:27;;;;;;;;;;;;;;;26.18;47.59;98561.09;5120247;28;19951;-60
2022/07/12 11:20:04;;;;;;;;;;;;;;;25.74;45.63;98562.97;5118448;28;19935;-60
2022/07/12 11:22:31;;;;;;;;;;;;;;;25.39;46.20;98567.34;5121629;28;19924;-59
2022/07/12 11:24:58;;;;;;;;;;;;;;;25.29;45.06;98565.06;5121937;28;19924;-61
2022/07/12 11:27:25;;;;;;;;;;;;;;;25.19;45.93;98557.34;5119707;28;19974;-60
2022/07/12 11:29:58;;;;;;;;;;;;;;;25.25;45.70;98551.28;5118520;28;19936;-59
2022/07/12 11:32:35;;;;;;;;;;;;;;;25.22;47.54;98560.16;5120534;28;19931;-60
2022/07/12 11:35:02;;;;;;;;;;;;;;;25.48;47.99;98565.28;5121891;28;19924;-60
2022/07/12 11:37:28;;;;;;;;;;;;;;;25.65;48.38;98561.50;5119322;28;19923;-59
2022/07/12 11:39:54;;;;;;;;;;;;;;;25.76;48.67;98563.41;5118392;28;19924;-60
2022/07/12 11:42:21;;;;;;;;;;;;;;;25.93;47.47;98559.59;5118098;28;19954;-60
2022/07/12 11:44:48;;;;;;;;;;;;;;;26.00;47.81;98553.50;5115063;28;19967;-61
2022/07/12 11:47:15;;;;;;;;;;;;;;;25.92;45.48;98552.53;5120738;28;19924;-61
2022/07/12 11:49:47;;;;;;;;;;;;;;;25.82;47.29;98546.75;5117367;28;19956;-60
2022/07/12 11:52:14;;;;;;;;;;;;;;;25.85;46.50;98548.78;5118874;28;19952;-61
2022/07/12 11:54:40;;;;;;;;;;;;;;;25.99;45.75;98535.53;5121750;28;19924;-60
2022/07/12 11:57:08;;;;;;;;;;;;;;;26.20;46.62;98536.13;5121586;28;19962;-61
2022/07/12 11:59:34;;;;;;;;;;;;;;;26.24;44.72;98537.03;5118128;28;20011;-61
2022/07/12 12:02:04;;;;;;;;;;;;;;;25.97;44.74;98551.47;5118178;28;19928;-60
2022/07/12 12:04:30;;;;;;;;;;;;;;;25.72;44.86;98545.28;5121080;28;19924;-60
2022/07/12 12:06:58;;;;;;;;;;;;;;;25.54;45.10;98547.50;5121448;28;19979;-60
2022/07/12 12:09:24;;;;;;;;;;;;;;;25.63;45.54;98553.63;5119504;28;19951;-60
2022/07/12 12:11:50;;;;;;;;;;;;;;;25.78;45.83;98552.91;5117948;28;19959;-61
2022/07/12 12:14:17;;;;;;;;;;;;;;;26.02;46.42;98548.50;5110650;28;19935;-60
2022/07/12 12:16:43;;;;;;;;;;;;;;;26.05;45.44;98551.34;5121538;28;20036;-60
2022/07/12 12:19:11;;;;;;;;;;;;;;;26.03;44.77;98539.94;5121229;28;19952;-60
2022/07/12 12:21:37;;;;;;;;;;;;;;;25.89;45.18;98541.47;5118305;28;19931;-59
2022/07/12 12:24:11;;;;;;;;;;;;;;;25.93;45.20;98542.38;5118213;28;19959;-60
2022/07/12 12:26:38;;;;;;;;;;;;;;;25.93;44.70;98539.66;5118066;28;19931;-60
2022/07/12 12:29:05;;;;;;;;;;;;;;;25.84;44.25;98536.28;5118009;28;19924;-61
2022/07/12 12:31:31;;;;;;;;;;;;;;;25.71;44.66;98535.50;5121028;28;19955;-61
2022/07/12 12:33:58;;;;;;;;;;;;;;;25.61;44.50;98533.25;5121457;28;19924;-60
2022/07/12 12:36:25;;;;;;;;;;;;;;;25.68;44.71;98538.94;5119464;28;19934;-60
2022/07/12 12:38:52;;;;;;;;;;;;;;;25.76;44.30;98533.31;5117919;28;19952;-59
2022/07/12 12:41:22;;;;;;;;;;;;;;;25.87;45.42;98530.91;5119181;28;19967;-59
2022/07/12 12:43:49;;;;;;;;;;;;;;;26.04;45.33;98518.84;5111026;28;19928;-61
2022/07/12 12:46:15;;;;;;;;;;;;;;;25.91;44.32;98539.19;5118702;28;19924;-61